Time;durP1;ratioP1;P1;durP2;ratioP2;P2;SDS_P1;SDS_P2;PMS_P1;PMS_P2;Temp;Humidity;BMP_temperature;BMP_pressure;BME280_temperature;BME280_humidity;BME280_pressure;Samples;Min_cycle;Max_cycle;Signal;HPM_P1;HPM_P2
2022/01/06 00:01:31;;;;;;;7.40;1.33;;;4.20;99.90;;;;;;5008681;28;20052;-74
2022/01/06 00:03:56;;;;;;;7.53;1.30;;;4.10;99.90;;;;;;5025616;28;20049;-73
2022/01/06 00:06:23;;;;;;;8.43;1.10;;;4.10;99.90;;;;;;5023104;28;20474;-73
2022/01/06 00:08:49;;;;;;;13.98;1.70;;;4.10;99.90;;;;;;5026696;28;20092;-74
2022/01/06 00:11:15;;;;;;;13.77;1.63;;;4.10;99.90;;;;;;5024634;28;20073;-74
2022/01/06 00:13:55;;;;;;;11.07;1.70;;;4.10;99.90;;;;;;5024406;28;20155;-74
2022/01/06 00:24:25;;;;;;;15.95;1.88;;;4.00;99.90;;;;;;5036320;28;20433;-74
2022/01/06 00:26:50;;;;;;;16.63;2.08;;;3.90;99.90;;;;;;5025860;28;20140;-73
2022/01/06 00:29:20;;;;;;;17.42;2.05;;;3.90;99.90;;;;;;5021230;28;20041;-74
2022/01/06 00:31:46;;;;;;;15.25;3.00;;;3.90;99.90;;;;;;5021192;28;20049;-74
2022/01/06 00:34:12;;;;;;;16.70;1.90;;;3.90;99.90;;;;;;5022572;28;20127;-74
2022/01/06 00:36:38;;;;;;;18.75;2.38;;;3.90;99.90;;;;;;5022448;28;20049;-74
2022/01/06 00:39:05;;;;;;;15.82;2.70;;;3.90;99.90;;;;;;5023992;28;20045;-74
2022/01/06 00:41:35;;;;;;;15.82;2.75;;;3.90;99.90;;;;;;5015468;28;20042;-74
2022/01/06 00:44:01;;;;;;;12.65;2.33;;;3.90;99.90;;;;;;5008571;28;20041;-74
2022/01/06 00:46:27;;;;;;;20.52;2.47;;;4.60;99.90;;;;;;5021362;28;20041;-74
2022/01/06 00:48:53;;;;;;;17.60;1.92;;;3.90;99.90;;;;;;5020323;28;20623;-74
2022/01/06 00:51:19;;;;;;;18.58;2.13;;;3.90;99.90;;;;;;5004078;28;20489;-74
2022/01/06 00:53:45;;;;;;;20.73;2.45;;;3.90;99.90;;;;;;5055133;28;20103;-74
2022/01/06 00:56:10;;;;;;;18.65;2.35;;;3.90;99.90;;;;;;5038914;28;20540;-74
2022/01/06 00:58:36;;;;;;;24.10;2.25;;;3.80;99.90;;;;;;4999789;28;20076;-74
2022/01/06 01:01:02;;;;;;;19.98;2.55;;;3.80;99.90;;;;;;5006886;28;20048;-73
2022/01/06 01:03:28;;;;;;;19.70;2.42;;;3.80;99.90;;;;;;5036941;28;20077;-74
2022/01/06 01:05:55;;;;;;;13.02;3.65;;;3.80;99.90;;;;;;5036617;28;20053;-73
2022/01/06 01:08:22;;;;;;;18.45;2.38;;;3.80;99.90;;;;;;5016053;28;20050;-73
2022/01/06 01:10:49;;;;;;;19.90;1.95;;;3.70;99.90;;;;;;5017314;28;20046;-73
2022/01/06 01:13:15;;;;;;;23.00;3.65;;;3.70;99.90;;;;;;5020750;28;20050;-74
2022/01/06 01:15:48;;;;;;;17.52;1.98;;;3.70;99.90;;;;;;5019769;28;20112;-74
2022/01/06 01:18:18;;;;;;;14.15;1.67;;;3.70;99.90;;;;;;5006312;28;20128;-74
2022/01/06 01:20:44;;;;;;;16.02;1.77;;;3.70;99.90;;;;;;5039939;28;20502;-74
2022/01/06 01:23:09;;;;;;;20.38;2.13;;;3.70;99.90;;;;;;5017125;28;20732;-74
2022/01/06 01:25:35;;;;;;;15.50;1.83;;;3.70;99.90;;;;;;5022001;28;20046;-74
2022/01/06 01:28:03;;;;;;;14.63;2.15;;;3.70;99.90;;;;;;5022653;28;20053;-74
2022/01/06 01:30:32;;;;;;;19.15;2.13;;;3.60;99.90;;;;;;5014571;28;20068;-74
2022/01/06 01:32:59;;;;;;;23.25;2.83;;;3.60;99.90;;;;;;5036921;28;20049;-74
2022/01/06 01:35:31;;;;;;;16.38;2.45;;;3.50;99.90;;;;;;5021476;28;20045;-74
2022/01/06 01:37:57;;;;;;;16.25;2.17;;;3.50;99.90;;;;;;5018936;28;20056;-74
2022/01/06 01:40:22;;;;;;;15.45;1.90;;;3.50;99.90;;;;;;5016333;28;20037;-74
2022/01/06 01:42:48;;;;;;;13.10;2.15;;;3.40;99.90;;;;;;5010878;28;20418;-73
2022/01/06 01:45:16;;;;;;;15.57;2.60;;;3.40;99.90;;;;;;5013390;28;20052;-74
2022/01/06 01:47:44;;;;;;;21.15;2.42;;;3.40;99.90;;;;;;5048580;28;20057;-73
2022/01/06 01:50:21;;;;;;;15.10;1.95;;;3.30;99.90;;;;;;5022827;28;20633;-74
2022/01/06 01:52:48;;;;;;;17.17;1.95;;;3.30;99.90;;;;;;5046759;28;20056;-74
2022/01/06 01:55:17;;;;;;;19.38;2.50;;;3.30;99.90;;;;;;5017082;28;20041;-74
2022/01/06 01:57:43;;;;;;;15.38;1.70;;;3.20;99.90;;;;;;5001338;28;20095;-74
2022/01/06 02:00:11;;;;;;;17.30;1.83;;;3.20;99.90;;;;;;5024854;28;20125;-74
2022/01/06 02:02:36;;;;;;;23.55;2.30;;;3.10;99.90;;;;;;5008448;28;20049;-74
2022/01/06 02:05:03;;;;;;;18.45;2.00;;;3.10;99.90;;;;;;5052453;28;20136;-74
2022/01/06 02:07:29;;;;;;;18.30;2.25;;;3.10;99.90;;;;;;5015766;28;20519;-74
2022/01/06 02:09:54;;;;;;;14.70;1.90;;;3.00;99.90;;;;;;5012639;28;20136;-74
2022/01/06 02:12:29;;;;;;;20.98;2.67;;;3.00;99.90;;;;;;5031964;28;20693;-73
2022/01/06 02:14:55;;;;;;;18.08;2.60;;;3.00;99.90;;;;;;5016234;28;20037;-73
2022/01/06 02:17:21;;;;;;;20.83;2.45;;;3.00;99.90;;;;;;5003108;28;20042;-74
2022/01/06 02:19:57;;;;;;;24.35;2.30;;;3.00;99.90;;;;;;5009443;28;20059;-74
2022/01/06 02:22:23;;;;;;;16.40;3.03;;;3.00;99.90;;;;;;5036064;28;20059;-74
2022/01/06 02:24:49;;;;;;;20.85;2.30;;;3.00;99.90;;;;;;5012983;28;20080;-74
2022/01/06 02:27:15;;;;;;;20.00;1.98;;;3.00;99.90;;;;;;5018470;28;20057;-74
2022/01/06 02:29:42;;;;;;;20.63;2.60;;;3.00;99.90;;;;;;5013684;28;20044;-74
2022/01/06 02:32:15;;;;;;;18.48;2.38;;;3.00;99.90;;;;;;5016285;28;20096;-74
2022/01/06 02:34:40;;;;;;;12.82;2.38;;;3.00;99.90;;;;;;4998922;28;20124;-74
2022/01/06 02:37:06;;;;;;;20.00;2.72;;;3.00;99.90;;;;;;5013819;28;20053;-74
2022/01/06 02:39:32;;;;;;;21.63;2.58;;;2.90;99.90;;;;;;5014179;28;20046;-74
2022/01/06 02:41:58;;;;;;;15.13;1.80;;;3.10;99.90;;;;;;5048268;28;20053;-74
2022/01/06 02:44:25;;;;;;;17.95;2.17;;;2.90;99.90;;;;;;5048097;28;20052;-74
2022/01/06 02:46:52;;;;;;;17.27;1.77;;;3.00;99.90;;;;;;5012700;28;20052;-74
2022/01/06 02:49:18;;;;;;;14.15;2.28;;;2.90;99.90;;;;;;5012890;28;20068;-74
2022/01/06 02:51:43;;;;;;;17.33;2.22;;;2.80;99.90;;;;;;5012425;28;20172;-74
2022/01/06 02:54:09;;;;;;;15.57;2.45;;;2.80;99.90;;;;;;5030524;28;20124;-74
2022/01/06 02:56:37;;;;;;;19.70;1.85;;;2.80;99.90;;;;;;4998250;28;20068;-74
2022/01/06 02:59:03;;;;;;;11.52;1.98;;;2.80;99.90;;;;;;5000397;28;20042;-74
2022/01/06 03:01:29;;;;;;;14.23;1.70;;;2.70;99.90;;;;;;5045545;28;20076;-74
2022/01/06 03:03:55;;;;;;;13.73;1.60;;;2.70;99.90;;;;;;5042977;28;20049;-74
2022/01/06 03:06:20;;;;;;;15.32;2.28;;;2.60;99.90;;;;;;5012506;28;20040;-74
2022/01/06 03:08:46;;;;;;;21.20;1.95;;;2.50;99.90;;;;;;5015526;28;20045;-74
2022/01/06 03:11:12;;;;;;;13.52;1.90;;;2.50;99.90;;;;;;4998116;28;20052;-74
2022/01/06 03:13:37;;;;;;;13.27;2.10;;;2.40;99.90;;;;;;5017612;28;20232;-73
2022/01/06 03:16:04;;;;;;;15.80;2.10;;;2.70;99.90;;;;;;5020228;28;20048;-73
2022/01/06 03:18:29;;;;;;;16.98;1.90;;;2.30;99.90;;;;;;5024842;28;20041;-74
2022/01/06 03:20:55;;;;;;;10.95;1.58;;;2.40;99.90;;;;;;5006975;28;20055;-73
2022/01/06 03:23:21;;;;;;;13.90;1.45;;;2.30;99.90;;;;;;5021207;28;20045;-74
2022/01/06 03:25:47;;;;;;;11.30;1.42;;;2.30;99.90;;;;;;5034528;28;20052;-73
2022/01/06 03:28:12;;;;;;;17.25;2.22;;;2.20;99.90;;;;;;5026823;28;20069;-74
2022/01/06 03:30:38;;;;;;;11.95;1.80;;;2.20;99.90;;;;;;5006735;28;20134;-73
2022/01/06 03:33:04;;;;;;;14.80;1.92;;;2.20;99.90;;;;;;5009680;28;20056;-74
2022/01/06 03:35:30;;;;;;;15.25;2.03;;;2.10;99.90;;;;;;5024384;28;20034;-74
2022/01/06 03:37:56;;;;;;;12.70;1.83;;;2.10;99.90;;;;;;5031566;28;20540;-74
2022/01/06 03:40:22;;;;;;;8.75;1.30;;;2.00;99.90;;;;;;5036903;28;20038;-71
2022/01/06 03:42:48;;;;;;;13.73;1.95;;;2.00;99.90;;;;;;5047670;28;20045;-73
2022/01/06 03:45:16;;;;;;;11.40;1.95;;;1.90;99.90;;;;;;5026230;28;20088;-74
2022/01/06 03:47:42;;;;;;;15.85;2.05;;;1.90;99.90;;;;;;5020523;28;21845;-74
2022/01/06 03:50:10;;;;;;;15.48;1.58;;;1.80;99.90;;;;;;5032914;28;20080;-74
2022/01/06 03:52:36;;;;;;;12.80;2.13;;;1.80;99.90;;;;;;5021024;28;20072;-73
2022/01/06 03:55:05;;;;;;;9.43;1.80;;;1.80;99.90;;;;;;5022516;28;20145;-73
2022/01/06 03:57:31;;;;;;;16.42;2.38;;;1.70;99.90;;;;;;5022619;28;20099;-73
2022/01/06 03:59:57;;;;;;;17.15;1.88;;;1.70;99.90;;;;;;5002352;28;20045;-74
2022/01/06 04:02:22;;;;;;;17.65;2.35;;;1.60;99.90;;;;;;5036948;28;20033;-73
2022/01/06 04:04:48;;;;;;;19.17;1.98;;;1.60;99.90;;;;;;5027168;28;20056;-74
2022/01/06 04:07:14;;;;;;;10.90;2.55;;;1.50;99.90;;;;;;5001332;28;20575;-74
2022/01/06 04:09:39;;;;;;;16.23;1.83;;;1.50;99.90;;;;;;5011955;28;20048;-74
2022/01/06 04:12:09;;;;;;;11.48;1.73;;;1.50;99.90;;;;;;5013928;28;20053;-73
2022/01/06 04:14:35;;;;;;;12.48;2.05;;;1.50;99.90;;;;;;5030415;28;20449;-73
2022/01/06 04:17:01;;;;;;;17.15;2.00;;;1.50;99.90;;;;;;5016240;28;20110;-74
2022/01/06 04:19:27;;;;;;;17.98;2.13;;;1.40;99.90;;;;;;5016802;28;20037;-74
2022/01/06 04:21:53;;;;;;;12.30;1.67;;;1.40;99.90;;;;;;5017150;28;20048;-74
2022/01/06 04:24:19;;;;;;;14.82;2.67;;;1.30;99.90;;;;;;5005050;28;20099;-74
2022/01/06 04:26:45;;;;;;;14.90;1.50;;;1.30;99.90;;;;;;5017747;28;20135;-74
2022/01/06 04:29:10;;;;;;;20.00;2.17;;;1.20;99.90;;;;;;5016984;28;20133;-73
2022/01/06 04:31:38;;;;;;;15.60;2.45;;;1.20;99.90;;;;;;5017434;28;20041;-74
2022/01/06 04:34:03;;;;;;;16.90;2.65;;;1.20;99.90;;;;;;4999424;28;20075;-74
2022/01/06 04:36:29;;;;;;;15.55;1.83;;;1.20;99.90;;;;;;5001668;28;20135;-74
2022/01/06 04:38:54;;;;;;;11.73;1.80;;;1.10;99.90;;;;;;5017006;28;20060;-74
2022/01/06 04:41:20;;;;;;;15.25;1.67;;;1.10;99.90;;;;;;5015182;28;20940;-74
2022/01/06 04:43:46;;;;;;;13.77;1.67;;;1.10;99.90;;;;;;5020513;28;20312;-73
2022/01/06 04:46:11;;;;;;;20.10;2.60;;;1.10;99.90;;;;;;5023463;28;20045;-74
2022/01/06 04:48:37;;;;;;;12.23;2.08;;;1.00;99.90;;;;;;5006485;28;20049;-73
2022/01/06 04:51:04;;;;;;;10.73;2.30;;;1.00;99.90;;;;;;5006694;28;20044;-73
2022/01/06 04:53:30;;;;;;;19.83;1.75;;;0.90;99.90;;;;;;5008182;28;20073;-73
2022/01/06 04:55:58;;;;;;;12.27;2.20;;;0.90;99.90;;;;;;5022846;28;20135;-73
2022/01/06 04:58:23;;;;;;;11.98;2.20;;;0.90;99.90;;;;;;5010475;28;20038;-74
2022/01/06 05:00:49;;;;;;;18.52;2.47;;;0.80;99.90;;;;;;5021941;28;20048;-74
2022/01/06 05:03:14;;;;;;;12.95;1.80;;;0.80;99.90;;;;;;5013766;28;20498;-74
2022/01/06 05:05:40;;;;;;;12.05;1.58;;;0.80;99.90;;;;;;4996029;28;20473;-74
2022/01/06 05:08:06;;;;;;;15.80;1.80;;;0.80;99.90;;;;;;5024682;28;20049;-73
2022/01/06 05:10:32;;;;;;;18.52;2.05;;;0.70;99.90;;;;;;5003168;28;20072;-74
2022/01/06 05:12:57;;;;;;;22.42;2.45;;;0.70;99.90;;;;;;4997217;28;20045;-73
2022/01/06 05:15:23;;;;;;;13.95;2.22;;;0.70;99.90;;;;;;5022348;28;20576;-74
2022/01/06 05:17:49;;;;;;;12.00;2.30;;;0.70;99.90;;;;;;5025594;28;20032;-73
2022/01/06 05:20:14;;;;;;;17.45;2.15;;;0.70;99.90;;;;;;5022046;28;20049;-73
2022/01/06 05:22:43;;;;;;;18.33;2.25;;;0.70;99.90;;;;;;4998271;28;20048;-73
2022/01/06 05:25:11;;;;;;;10.10;1.65;;;0.70;99.90;;;;;;5020965;28;20517;-73
2022/01/06 05:27:37;;;;;;;15.43;1.83;;;0.60;99.90;;;;;;5013326;28;20083;-74
2022/01/06 05:30:06;;;;;;;11.73;1.70;;;0.60;99.90;;;;;;5012243;28;20596;-73
2022/01/06 05:32:32;;;;;;;14.80;1.92;;;1.00;99.90;;;;;;5012677;28;20044;-74
2022/01/06 05:34:58;;;;;;;17.95;1.98;;;0.50;99.90;;;;;;5016642;28;20051;-74
2022/01/06 05:37:23;;;;;;;15.15;1.90;;;0.50;99.90;;;;;;5022162;28;20060;-74
2022/01/06 05:39:49;;;;;;;17.05;1.98;;;0.40;99.90;;;;;;4998124;28;20040;-74
2022/01/06 05:42:15;;;;;;;16.17;1.90;;;0.40;99.90;;;;;;5042465;28;20053;-74
2022/01/06 05:44:41;;;;;;;14.32;2.00;;;0.40;99.90;;;;;;5016376;28;20079;-74
2022/01/06 05:47:07;;;;;;;17.75;3.33;;;0.40;99.90;;;;;;5033219;28;20060;-73
2022/01/06 05:49:33;;;;;;;19.73;2.92;;;0.40;99.90;;;;;;5020194;28;20041;-74
2022/01/06 05:52:00;;;;;;;15.45;2.13;;;0.40;99.90;;;;;;5048561;28;20413;-74
2022/01/06 05:54:25;;;;;;;18.40;2.13;;;0.40;99.90;;;;;;4993488;28;20052;-73
2022/01/06 05:56:51;;;;;;;17.10;2.63;;;0.30;99.90;;;;;;5028770;28;20049;-73
2022/01/06 05:59:17;;;;;;;15.30;2.00;;;0.40;99.90;;;;;;5011312;28;20078;-73
2022/01/06 06:01:43;;;;;;;11.20;2.13;;;0.30;99.90;;;;;;5010968;28;20048;-73
2022/01/06 06:04:09;;;;;;;18.08;2.00;;;0.30;99.90;;;;;;5014873;28;20053;-73
2022/01/06 06:06:34;;;;;;;19.70;2.25;;;0.30;99.90;;;;;;5054465;28;20068;-74
2022/01/06 06:09:00;;;;;;;16.80;2.72;;;0.40;99.90;;;;;;5024059;28;20068;-73
2022/01/06 06:11:26;;;;;;;19.55;3.15;;;0.30;99.90;;;;;;5053125;28;20131;-73
2022/01/06 06:13:51;;;;;;;17.52;2.13;;;0.30;99.90;;;;;;5020854;28;20064;-73
2022/01/06 06:16:17;;;;;;;18.33;2.53;;;0.30;99.90;;;;;;5027820;28;20056;-73
2022/01/06 06:18:43;;;;;;;14.02;1.83;;;0.30;99.90;;;;;;5018163;28;20297;-73
2022/01/06 06:21:08;;;;;;;20.05;2.20;;;0.20;99.90;;;;;;5005754;28;20076;-73
2022/01/06 06:23:34;;;;;;;16.10;1.90;;;0.30;99.90;;;;;;5017860;28;20045;-73
2022/01/06 06:26:00;;;;;;;27.60;3.25;;;0.20;99.90;;;;;;5013412;28;20498;-74
2022/01/06 06:28:26;;;;;;;18.77;2.42;;;0.20;99.90;;;;;;5000906;28;20041;-74
2022/01/06 06:30:51;;;;;;;14.52;2.63;;;0.30;99.90;;;;;;5016301;28;20052;-73
2022/01/06 06:33:17;;;;;;;14.05;2.25;;;0.30;99.90;;;;;;5017175;28;20510;-73
2022/01/06 06:35:43;;;;;;;13.65;2.20;;;0.20;99.90;;;;;;5017405;28;20134;-73
2022/01/06 06:38:09;;;;;;;19.08;3.28;;;0.20;99.90;;;;;;5048782;28;20556;-74
2022/01/06 06:40:34;;;;;;;13.90;1.90;;;0.20;99.90;;;;;;5003747;28;20498;-73
2022/01/06 06:43:00;;;;;;;20.63;2.92;;;0.20;99.90;;;;;;5021798;28;20662;-74
2022/01/06 06:45:26;;;;;;;15.70;2.08;;;0.20;99.90;;;;;;5011507;28;20046;-73
2022/01/06 06:47:51;;;;;;;21.90;2.00;;;0.20;99.90;;;;;;5017559;28;20132;-73
2022/01/06 06:50:17;;;;;;;22.35;2.50;;;0.20;99.90;;;;;;5015763;28;20045;-73
2022/01/06 06:52:47;;;;;;;24.55;2.47;;;0.30;99.90;;;;;;5021416;28;20061;-72
2022/01/06 06:55:13;;;;;;;23.70;4.10;;;0.30;99.90;;;;;;5012429;28;20122;-73
2022/01/06 06:57:39;;;;;;;24.85;2.67;;;0.30;99.90;;;;;;5013384;28;20387;-73
2022/01/06 07:00:08;;;;;;;17.92;2.55;;;0.30;99.90;;;;;;5029105;28;20048;-73
2022/01/06 07:02:34;;;;;;;24.08;3.20;;;0.30;99.90;;;;;;5013458;28;20053;-73
2022/01/06 07:04:59;;;;;;;21.73;3.08;;;0.30;99.90;;;;;;5030640;28;20083;-73
2022/01/06 07:07:26;;;;;;;17.67;3.15;;;0.30;99.90;;;;;;5015434;28;20052;-73
2022/01/06 07:09:52;;;;;;;20.52;2.20;;;0.40;99.90;;;;;;5027091;28;20426;-73
2022/01/06 07:12:18;;;;;;;19.55;3.38;;;0.40;99.90;;;;;;5009950;28;20087;-73
2022/01/06 07:14:43;;;;;;;17.48;2.40;;;0.40;99.90;;;;;;5013015;28;20118;-73
2022/01/06 07:17:09;;;;;;;16.15;2.55;;;0.40;99.90;;;;;;5013325;28;20048;-73
2022/01/06 07:19:34;;;;;;;19.55;2.50;;;0.40;99.90;;;;;;5029474;28;20094;-73
2022/01/06 07:22:00;;;;;;;14.27;2.97;;;0.40;99.90;;;;;;5029461;28;20288;-73
2022/01/06 07:24:26;;;;;;;15.07;2.28;;;0.40;99.90;;;;;;5010960;28;20075;-73
2022/01/06 07:26:51;;;;;;;21.13;4.05;;;0.40;99.90;;;;;;5027891;28;20053;-73
2022/01/06 07:29:17;;;;;;;24.95;2.47;;;0.30;99.90;;;;;;5018460;28;20059;-73
2022/01/06 07:31:43;;;;;;;17.92;2.80;;;0.40;99.90;;;;;;5016994;28;20074;-73
2022/01/06 07:34:09;;;;;;;18.80;2.30;;;0.40;99.90;;;;;;5007351;28;20037;-73
2022/01/06 07:36:35;;;;;;;24.23;3.15;;;0.40;99.90;;;;;;5019795;28;20071;-71
2022/01/06 07:39:01;;;;;;;19.27;3.13;;;0.40;99.90;;;;;;5050021;28;20703;-73
2022/01/06 07:41:27;;;;;;;20.83;3.47;;;0.40;99.90;;;;;;5000763;28;20040;-73
2022/01/06 07:43:52;;;;;;;16.17;2.40;;;0.40;99.90;;;;;;5014801;28;20037;-73
2022/01/06 07:46:18;;;;;;;25.80;3.50;;;0.40;99.90;;;;;;4999348;28;20049;-73
2022/01/06 07:48:54;;;;;;;18.00;3.47;;;0.40;99.90;;;;;;5002434;28;20053;-73
2022/01/06 07:51:20;;;;;;;26.05;4.15;;;0.60;99.90;;;;;;5042607;28;20041;-73
2022/01/06 07:53:46;;;;;;;18.63;2.55;;;0.40;99.90;;;;;;5022383;28;20048;-73
2022/01/06 07:56:12;;;;;;;18.35;2.78;;;0.50;99.90;;;;;;5017439;28;20039;-73
2022/01/06 07:58:37;;;;;;;22.58;3.00;;;0.50;99.90;;;;;;5021968;28;20494;-73
2022/01/06 08:01:03;;;;;;;23.65;3.38;;;0.50;99.90;;;;;;5017083;28;20052;-73
2022/01/06 08:03:29;;;;;;;19.48;2.65;;;0.50;99.90;;;;;;5014292;28;20033;-73
2022/01/06 08:05:54;;;;;;;21.20;2.78;;;0.50;99.90;;;;;;5013387;28;20069;-73
2022/01/06 08:08:20;;;;;;;15.43;2.33;;;0.50;99.90;;;;;;5019142;28;20037;-73
2022/01/06 08:10:45;;;;;;;17.45;2.47;;;0.50;99.90;;;;;;5022523;28;20040;-73
2022/01/06 08:13:12;;;;;;;16.73;3.05;;;0.50;99.90;;;;;;5004788;28;20048;-73
2022/01/06 08:15:37;;;;;;;18.45;2.53;;;0.60;99.90;;;;;;5024724;28;20497;-73
2022/01/06 08:18:03;;;;;;;21.15;3.83;;;0.60;99.90;;;;;;5019414;28;20051;-73
2022/01/06 08:20:29;;;;;;;21.95;3.70;;;0.60;99.90;;;;;;5025775;28;20449;-76
2022/01/06 08:22:54;;;;;;;25.33;3.53;;;0.70;99.90;;;;;;5011496;28;20495;-75
2022/01/06 08:25:20;;;;;;;24.05;3.35;;;0.70;99.90;;;;;;5027038;28;20697;-76
2022/01/06 08:27:46;;;;;;;15.82;3.25;;;0.70;99.90;;;;;;5027811;28;20107;-75
2022/01/06 08:30:11;;;;;;;18.20;3.30;;;0.70;99.90;;;;;;5026822;28;20676;-75
2022/01/06 08:32:37;;;;;;;18.15;3.03;;;0.80;99.90;;;;;;5027695;28;20032;-76
2022/01/06 08:35:04;;;;;;;30.10;3.10;;;0.80;99.90;;;;;;5011155;28;20662;-76
2022/01/06 08:37:30;;;;;;;29.10;2.63;;;0.90;99.90;;;;;;5010604;28;20048;-76
2022/01/06 08:39:55;;;;;;;20.65;3.17;;;1.00;99.90;;;;;;5008647;28;20467;-75
2022/01/06 08:42:21;;;;;;;22.45;3.63;;;1.00;99.90;;;;;;5026853;28;20567;-76
2022/01/06 08:44:47;;;;;;;17.50;3.70;;;1.10;99.90;;;;;;5010745;28;20041;-76
2022/01/06 08:47:13;;;;;;;20.88;2.88;;;1.20;99.90;;;;;;5010606;28;20409;-76
2022/01/06 08:49:41;;;;;;;24.92;3.38;;;1.30;99.90;;;;;;5022085;28;20053;-76
2022/01/06 08:52:07;;;;;;;21.45;3.65;;;1.40;99.90;;;;;;5038279;28;20470;-75
2022/01/06 08:54:33;;;;;;;16.10;2.67;;;1.40;99.90;;;;;;5030266;28;20032;-76
2022/01/06 08:56:58;;;;;;;21.80;2.60;;;1.50;99.90;;;;;;5056349;28;20551;-73
2022/01/06 08:59:24;;;;;;;24.90;3.92;;;1.50;99.90;;;;;;5052751;28;20044;-72
2022/01/06 09:01:50;;;;;;;25.05;3.22;;;1.60;99.90;;;;;;5023009;28;20040;-73
2022/01/06 09:04:20;;;;;;;27.70;2.85;;;1.70;99.90;;;;;;5050723;28;20844;-73
2022/01/06 09:06:49;;;;;;;22.98;2.95;;;1.70;99.90;;;;;;5042841;28;20135;-73
2022/01/06 09:09:15;;;;;;;19.50;2.67;;;1.70;99.90;;;;;;5023250;28;20044;-74
2022/01/06 09:11:41;;;;;;;21.38;2.67;;;1.70;99.90;;;;;;5026966;28;20049;-73
2022/01/06 09:14:07;;;;;;;16.83;2.72;;;1.80;99.90;;;;;;5017999;28;20458;-74
2022/01/06 09:16:33;;;;;;;17.38;2.20;;;1.80;99.90;;;;;;5019881;28;20046;-73
2022/01/06 09:18:59;;;;;;;24.73;2.88;;;1.90;99.90;;;;;;5016020;28;20049;-74
2022/01/06 09:21:25;;;;;;;24.55;3.67;;;1.90;99.90;;;;;;5048035;28;20606;-73
2022/01/06 09:23:51;;;;;;;20.00;3.88;;;2.00;99.90;;;;;;5018849;28;20060;-74
2022/01/06 09:26:18;;;;;;;18.23;3.03;;;2.00;99.90;;;;;;5000961;28;20469;-74
2022/01/06 09:28:44;;;;;;;22.70;3.17;;;2.20;99.90;;;;;;5000070;28;20060;-74
2022/01/06 09:31:09;;;;;;;20.92;3.03;;;2.30;99.90;;;;;;5033617;28;20030;-73
2022/01/06 09:33:35;;;;;;;21.25;3.13;;;2.30;99.90;;;;;;5024645;28;20037;-73
2022/01/06 09:36:02;;;;;;;23.33;3.63;;;2.40;99.90;;;;;;5009344;28;20053;-73
2022/01/06 09:38:28;;;;;;;24.95;3.08;;;2.40;99.90;;;;;;5004187;28;20624;-73
2022/01/06 09:40:53;;;;;;;23.60;3.25;;;2.50;99.90;;;;;;5024115;28;20072;-74
2022/01/06 09:43:26;;;;;;;23.98;3.80;;;2.60;99.90;;;;;;4988242;28;20052;-73
2022/01/06 09:45:52;;;;;;;22.58;2.67;;;2.60;99.90;;;;;;4999720;28;20049;-72
2022/01/06 09:48:21;;;;;;;18.77;2.90;;;2.70;99.90;;;;;;5001615;28;20409;-73
2022/01/06 09:50:50;;;;;;;17.90;3.05;;;2.80;99.90;;;;;;5011159;28;20063;-73
2022/01/06 09:53:17;;;;;;;22.05;3.00;;;2.80;99.90;;;;;;5006224;28;20033;-74
2022/01/06 09:55:43;;;;;;;22.75;4.07;;;2.90;99.90;;;;;;5002565;28;20056;-74
2022/01/06 09:58:09;;;;;;;22.52;4.47;;;3.10;99.90;;;;;;5007354;28;20045;-73
2022/01/06 10:00:36;;;;;;;21.20;3.40;;;3.00;99.90;;;;;;4986506;28;20057;-73
2022/01/06 10:03:06;;;;;;;20.17;2.95;;;3.60;99.90;;;;;;5003493;28;20077;-74
2022/01/06 10:05:43;;;;;;;18.77;3.35;;;3.10;99.90;;;;;;5039453;28;20052;-73
2022/01/06 10:08:11;;;;;;;22.88;3.50;;;3.20;99.90;;;;;;4996121;28;20459;-74
2022/01/06 10:10:37;;;;;;;27.70;3.20;;;3.20;99.90;;;;;;5010485;28;20116;-73
2022/01/06 10:13:07;;;;;;;17.52;3.03;;;3.30;99.90;;;;;;5012796;28;20148;-74
2022/01/06 10:15:37;;;;;;;20.38;3.63;;;3.30;99.90;;;;;;5017180;28;20846;-73
2022/01/06 10:18:29;;;;;;;27.02;4.55;;;3.30;99.90;;;;;;4999884;28;20045;-73
2022/01/06 10:20:54;;;;;;;20.65;2.83;;;3.40;99.90;;;;;;4989785;28;20059;-73
2022/01/06 10:23:20;;;;;;;29.65;3.92;;;3.40;99.90;;;;;;5019710;28;20052;-73
2022/01/06 10:25:49;;;;;;;19.17;3.10;;;3.40;99.90;;;;;;5001834;28;20128;-73
2022/01/06 10:28:20;;;;;;;30.80;4.38;;;3.40;99.90;;;;;;5014296;28;20053;-73
2022/01/06 10:30:49;;;;;;;17.80;2.72;;;3.50;99.90;;;;;;5016305;28;20079;-74
2022/01/06 10:33:19;;;;;;;19.35;3.17;;;3.50;99.90;;;;;;5000733;28;20056;-73
2022/01/06 10:35:46;;;;;;;20.48;2.78;;;3.60;99.90;;;;;;5014595;28;20053;-74
2022/01/06 10:38:12;;;;;;;19.92;3.42;;;3.60;99.90;;;;;;5002528;28;20041;-73
2022/01/06 10:40:39;;;;;;;23.13;4.25;;;3.60;99.90;;;;;;5017944;28;20417;-73
2022/01/06 10:43:06;;;;;;;21.92;3.08;;;3.70;99.90;;;;;;5018558;28;20525;-73
2022/01/06 10:45:34;;;;;;;22.13;2.95;;;3.70;99.90;;;;;;4998544;28;20554;-74
2022/01/06 10:48:02;;;;;;;21.05;3.92;;;3.80;99.90;;;;;;5015380;28;20227;-73
2022/01/06 10:50:36;;;;;;;17.50;3.17;;;3.80;99.90;;;;;;5001232;28;20098;-73
2022/01/06 10:53:12;;;;;;;20.77;2.78;;;3.80;99.90;;;;;;5013891;28;20284;-74
2022/01/06 10:55:40;;;;;;;15.32;2.55;;;3.80;99.90;;;;;;5008254;28;20065;-73
2022/01/06 10:58:06;;;;;;;24.13;3.63;;;3.90;99.90;;;;;;5010478;28;20049;-74
2022/01/06 11:00:45;;;;;;;23.00;4.55;;;3.90;99.90;;;;;;5010352;28;20040;-73
2022/01/06 11:03:20;;;;;;;16.52;2.85;;;3.90;99.90;;;;;;5009187;28;20041;-73
2022/01/06 11:05:51;;;;;;;23.50;3.67;;;4.00;99.90;;;;;;4994056;28;20056;-73
2022/01/06 11:08:24;;;;;;;18.23;2.95;;;4.20;99.90;;;;;;4996550;28;20055;-73
2022/01/06 11:11:14;;;;;;;17.80;2.75;;;4.10;99.90;;;;;;4997545;28;20052;-73
2022/01/06 11:13:41;;;;;;;20.60;2.67;;;4.10;99.90;;;;;;4999219;28;20591;-74
2022/01/06 11:16:08;;;;;;;19.42;2.65;;;4.20;99.90;;;;;;5029219;28;20128;-72
2022/01/06 11:18:40;;;;;;;18.38;3.13;;;4.20;99.90;;;;;;5014552;28;20041;-73
2022/01/06 11:21:13;;;;;;;19.10;2.70;;;4.30;99.90;;;;;;4992943;28;20178;-74
2022/01/06 11:23:39;;;;;;;29.83;4.63;;;4.30;99.90;;;;;;5026868;28;20053;-73
2022/01/06 11:26:07;;;;;;;23.85;3.50;;;4.10;99.90;;;;;;4981555;28;20049;-73
2022/01/06 11:28:33;;;;;;;15.27;2.70;;;4.40;99.90;;;;;;4993731;28;20041;-73
2022/01/06 11:31:16;;;;;;;16.60;3.08;;;4.40;99.90;;;;;;4978894;28;20042;-74
2022/01/06 11:33:44;;;;;;;15.70;2.60;;;4.50;99.90;;;;;;4992797;28;20396;-74
2022/01/06 11:36:30;;;;;;;23.52;3.55;;;4.50;99.90;;;;;;5033969;28;20049;-74
2022/01/06 11:38:57;;;;;;;12.50;2.95;;;4.90;99.90;;;;;;4996304;28;20083;-73
2022/01/06 11:41:35;;;;;;;22.70;3.72;;;4.60;99.90;;;;;;5006682;28;20061;-73
2022/01/06 11:44:02;;;;;;;23.35;3.85;;;4.70;99.90;;;;;;5005720;28;20077;-73
2022/01/06 11:46:40;;;;;;;26.00;3.13;;;4.70;99.90;;;;;;5001929;28;20033;-73
2022/01/06 11:49:05;;;;;;;13.32;2.47;;;4.80;99.90;;;;;;5002817;28;20053;-74
2022/01/06 11:51:34;;;;;;;15.63;2.50;;;4.80;99.90;;;;;;5003864;28;20091;-73
2022/01/06 11:54:15;;;;;;;16.10;2.83;;;4.90;99.90;;;;;;5035363;28;21498;-74
2022/01/06 11:56:50;;;;;;;19.75;2.78;;;5.00;99.90;;;;;;5025388;28;20506;-73
2022/01/06 11:59:28;;;;;;;18.98;2.42;;;5.00;99.90;;;;;;4997455;28;20060;-73
2022/01/06 12:01:53;;;;;;;18.67;2.58;;;5.10;99.90;;;;;;4977965;28;20041;-73
2022/01/06 12:04:21;;;;;;;13.63;2.78;;;5.10;99.90;;;;;;4992858;28;20045;-73
2022/01/06 12:06:48;;;;;;;24.23;3.28;;;5.20;99.90;;;;;;5008771;28;20077;-73
2022/01/06 12:09:22;;;;;;;14.15;2.45;;;5.30;99.90;;;;;;4970485;28;20707;-73
2022/01/06 12:12:11;;;;;;;22.92;3.95;;;5.30;99.90;;;;;;5021063;28;20045;-74
2022/01/06 12:14:37;;;;;;;23.75;3.38;;;5.30;99.90;;;;;;4992585;28;20045;-73
2022/01/06 12:17:05;;;;;;;22.55;3.03;;;5.40;99.90;;;;;;5005949;28;20059;-73
2022/01/06 12:19:31;;;;;;;18.88;3.03;;;5.50;99.90;;;;;;4989454;28;20042;-74
2022/01/06 12:21:57;;;;;;;18.33;2.63;;;5.40;99.90;;;;;;4988664;28;20041;-74
2022/01/06 12:24:23;;;;;;;23.27;3.35;;;5.50;99.90;;;;;;4989549;28;20103;-73
2022/01/06 12:26:48;;;;;;;25.10;3.15;;;5.50;99.90;;;;;;4987243;28;20053;-73
2022/01/06 12:29:23;;;;;;;17.08;2.70;;;5.50;99.90;;;;;;5025517;28;20088;-74
2022/01/06 12:31:50;;;;;;;19.48;2.28;;;5.60;99.90;;;;;;5008832;28;20076;-73
2022/01/06 12:34:17;;;;;;;22.67;2.80;;;5.60;99.90;;;;;;5000083;28;20048;-74
2022/01/06 12:36:45;;;;;;;17.50;3.40;;;5.60;99.90;;;;;;5023861;28;20694;-74
2022/01/06 12:39:19;;;;;;;15.05;2.08;;;5.60;99.90;;;;;;4992350;28;20056;-73
2022/01/06 12:41:46;;;;;;;19.75;2.15;;;5.70;99.90;;;;;;4990163;28;20249;-73
2022/01/06 12:44:19;;;;;;;17.83;2.30;;;5.70;99.90;;;;;;5014069;28;20172;-74
2022/01/06 12:46:45;;;;;;;18.25;1.98;;;5.70;99.90;;;;;;4989724;28;20042;-73
2022/01/06 12:49:12;;;;;;;12.38;1.95;;;5.80;99.90;;;;;;5012499;28;20510;-74
2022/01/06 12:51:43;;;;;;;17.50;2.42;;;5.80;99.90;;;;;;4984200;28;20113;-73
2022/01/06 12:54:15;;;;;;;13.95;2.00;;;5.70;99.90;;;;;;4986208;28;20045;-73
2022/01/06 12:56:58;;;;;;;15.63;2.30;;;5.80;99.90;;;;;;4994136;28;20045;-73